Astor, Florida
Current Conditions -  °F | °C
As of 8:15 AM on Saturday 22 Nov 2014 (Local Time) from KDED Reporting Station
Broken Clouds Broken Clouds  
Wind Chill: 70°   Ceiling: 4000
Heat Index: 70°   Visibility: 10mi
Dew Point: 63°   Wind: 12mph
Humidity: 78%   Direction: 90°E
Pressure: 30.29"   Gusts: NA
Location:  29.15°N, 81.53°W
Report Text: KDED 221315Z AUTO 09010KT 10SM BKN040 BKN050 21/17 A3029 RMK AO1
Loading
Personal Weather Stations






























Interactive Weather Map New forecast layout! Learn more

10-Day Weather Forecast

Advertisements
Track Severe Weather on mobile